createdAt,value
2018-01-21T00:01:37.768Z,1.77
2018-01-21T00:04:06.109Z,2.77
2018-01-21T00:06:33.815Z,1.80
2018-01-21T00:09:02.165Z,1.63
2018-01-21T00:11:29.764Z,1.50
2018-01-21T00:13:57.481Z,1.40
2018-01-21T00:16:25.053Z,3.10
2018-01-21T00:18:52.652Z,1.90
2018-01-21T00:23:54.127Z,1.70
2018-01-21T00:26:21.718Z,1.40
2018-01-21T00:28:49.304Z,1.40
2018-01-21T00:31:16.884Z,1.00
2018-01-21T00:33:45.424Z,0.80
2018-01-21T00:36:13.009Z,0.90
2018-01-21T00:38:40.625Z,0.93
2018-01-21T00:41:08.208Z,0.70
2018-01-21T00:43:35.788Z,0.77
2018-01-21T00:46:03.392Z,0.87
2018-01-21T00:48:30.961Z,1.03
2018-01-21T00:50:58.552Z,0.60
2018-01-21T00:53:26.132Z,0.80
2018-01-21T00:55:53.725Z,0.73
2018-01-21T00:58:21.290Z,0.80
2018-01-21T01:00:48.881Z,0.70
2018-01-21T01:03:16.472Z,0.70
2018-01-21T01:05:44.843Z,0.80
2018-01-21T01:08:12.414Z,0.70
2018-01-21T01:10:40.841Z,0.90
2018-01-21T01:13:08.557Z,0.77
2018-01-21T01:15:36.902Z,0.70
2018-01-21T01:18:04.493Z,0.60
2018-01-21T01:20:32.871Z,0.80
2018-01-21T01:23:01.251Z,0.70
2018-01-21T01:25:29.720Z,0.60
2018-01-21T01:27:57.304Z,0.70
2018-01-21T01:30:25.644Z,0.70
2018-01-21T01:32:53.248Z,0.67
2018-01-21T01:35:20.820Z,0.70
2018-01-21T01:37:48.453Z,0.60
2018-01-21T01:40:16.793Z,0.93
2018-01-21T01:42:44.384Z,0.90
2018-01-21T01:45:11.952Z,1.03
2018-01-21T01:47:40.325Z,1.00
2018-01-21T01:50:08.672Z,0.80
2018-01-21T01:52:36.280Z,0.90
2018-01-21T01:55:04.642Z,0.90
2018-01-21T01:57:32.993Z,1.07
2018-01-21T02:00:00.616Z,0.90
2018-01-21T02:02:28.276Z,1.00
2018-01-21T02:04:55.876Z,1.00
2018-01-21T02:07:24.233Z,1.10
2018-01-21T02:09:51.821Z,1.20
2018-01-21T02:12:19.460Z,1.27
2018-01-21T02:14:47.832Z,1.40
2018-01-21T02:17:16.173Z,1.43
2018-01-21T02:19:44.504Z,1.50
2018-01-21T02:22:12.105Z,1.57
2018-01-21T02:24:40.463Z,1.60
2018-01-21T02:27:08.097Z,1.70
2018-01-21T02:29:35.688Z,1.80
2018-01-21T02:32:03.257Z,1.67
2018-01-21T02:34:31.614Z,1.70
2018-01-21T02:36:59.193Z,1.60
2018-01-21T02:39:27.532Z,1.80
2018-01-21T02:41:55.136Z,1.40
2018-01-21T02:44:23.517Z,1.70
2018-01-21T02:46:51.856Z,1.67
2018-01-21T02:49:19.600Z,1.90
2018-01-21T02:51:47.228Z,1.77
2018-01-21T02:54:14.818Z,1.97
2018-01-21T02:56:42.389Z,1.93
2018-01-21T02:59:09.981Z,1.90
2018-01-21T03:01:37.548Z,1.80
2018-01-21T03:04:05.940Z,2.00
2018-01-21T03:06:34.277Z,2.10
2018-01-21T03:09:01.861Z,1.70
2018-01-21T03:11:29.454Z,2.00
2018-01-21T03:13:57.048Z,1.90
2018-01-21T03:16:24.625Z,1.83
2018-01-21T03:18:52.197Z,2.07
2018-01-21T03:21:19.847Z,1.93
2018-01-21T03:23:47.427Z,2.00
2018-01-21T03:26:15.795Z,2.10
2018-01-21T03:28:44.148Z,2.10
2018-01-21T03:31:11.740Z,1.50
2018-01-21T03:33:40.073Z,1.67
2018-01-21T03:36:07.680Z,1.80
2018-01-21T03:38:36.020Z,1.87
2018-01-21T03:41:03.688Z,1.57
2018-01-21T03:43:31.284Z,1.83
2018-01-21T03:45:59.648Z,1.60
2018-01-21T03:48:27.212Z,1.50
2018-01-21T03:50:54.813Z,1.50
2018-01-21T03:53:22.429Z,1.47
2018-01-21T03:55:49.992Z,1.47
2018-01-21T03:58:17.664Z,1.60
2018-01-21T04:00:46.005Z,1.70
2018-01-21T04:03:13.593Z,1.43
2018-01-21T04:05:41.172Z,1.40
2018-01-21T04:08:09.573Z,1.60
2018-01-21T04:10:37.173Z,1.53
2018-01-21T04:13:04.765Z,1.70
2018-01-21T04:15:33.117Z,1.70
2018-01-21T04:18:00.692Z,1.40
2018-01-21T04:20:28.285Z,1.80
2018-01-21T04:22:55.857Z,1.60
2018-01-21T04:25:23.452Z,1.50
2018-01-21T04:27:51.028Z,1.50
2018-01-21T04:30:18.625Z,1.70
2018-01-21T04:32:46.212Z,1.50
2018-01-21T04:35:14.621Z,1.87
2018-01-21T04:37:42.193Z,2.10
2018-01-21T04:40:10.556Z,1.90
2018-01-21T04:42:38.128Z,2.10
2018-01-21T04:45:06.485Z,2.00
2018-01-21T04:47:34.053Z,1.77
2018-01-21T04:50:01.633Z,2.07
2018-01-21T04:52:29.993Z,1.90
2018-01-21T04:54:57.569Z,2.13
2018-01-21T04:57:25.965Z,1.90
2018-01-21T04:59:53.533Z,2.27
2018-01-21T05:02:21.104Z,2.10
2018-01-21T05:04:48.696Z,1.87
2018-01-21T05:07:16.283Z,1.97
2018-01-21T05:09:44.633Z,1.63
2018-01-21T05:12:12.272Z,1.70
2018-01-21T05:14:39.865Z,1.80
2018-01-21T05:17:07.465Z,2.10
2018-01-21T05:19:35.145Z,1.80
2018-01-21T05:22:02.724Z,2.07
2018-01-21T05:24:30.337Z,2.47
2018-01-21T05:26:58.753Z,2.27
2018-01-21T05:29:26.349Z,2.40
2018-01-21T05:31:53.932Z,2.40
2018-01-21T05:34:22.273Z,2.80
2018-01-21T05:36:49.856Z,2.83
2018-01-21T05:39:18.216Z,2.90
2018-01-21T05:41:45.789Z,2.87
2018-01-21T05:44:13.400Z,2.73
2018-01-21T05:46:40.980Z,2.80
2018-01-21T05:49:08.587Z,2.97
2018-01-21T05:51:36.961Z,2.90
2018-01-21T05:54:05.333Z,2.90
2018-01-21T05:56:32.905Z,2.97
2018-01-21T05:59:01.243Z,3.20
2018-01-21T06:01:28.875Z,3.07
2018-01-21T06:03:56.505Z,3.03
2018-01-21T06:06:24.871Z,2.80
2018-01-21T06:08:53.207Z,2.50
2018-01-21T06:11:20.796Z,2.50
2018-01-21T06:13:48.368Z,2.90
2018-01-21T06:16:16.748Z,3.40
2018-01-21T06:18:44.320Z,3.60
2018-01-21T06:21:12.655Z,3.30
2018-01-21T06:23:40.257Z,3.50
2018-01-21T06:26:08.596Z,3.60
2018-01-21T06:28:36.205Z,3.90
2018-01-21T06:31:04.552Z,4.00
2018-01-21T06:33:32.152Z,4.00
2018-01-21T06:35:59.733Z,3.73
2018-01-21T06:38:27.337Z,3.80
2018-01-21T06:40:54.916Z,4.87
2018-01-21T06:43:23.313Z,4.60
2018-01-21T06:45:50.948Z,4.27
2018-01-21T06:48:18.562Z,4.97
2018-01-21T06:50:46.153Z,4.53
2018-01-21T06:53:13.853Z,4.47
2018-01-21T06:55:41.416Z,5.00
2018-01-21T06:58:09.013Z,4.70
2018-01-21T07:00:36.624Z,4.30
2018-01-21T07:03:05.029Z,4.77
2018-01-21T07:05:33.341Z,4.30
2018-01-21T07:08:00.921Z,4.73
2018-01-21T07:10:28.529Z,4.83
2018-01-21T07:12:56.124Z,5.37
2018-01-21T07:15:23.696Z,4.60
2018-01-21T07:17:51.345Z,4.60
2018-01-21T07:20:18.941Z,4.57
2018-01-21T07:22:47.294Z,5.13
2018-01-21T07:25:14.904Z,4.90
2018-01-21T07:27:42.489Z,4.87
2018-01-21T07:30:10.072Z,4.90
2018-01-21T07:32:37.654Z,5.13
2018-01-21T07:35:06.005Z,4.87
2018-01-21T07:37:33.576Z,5.23
2018-01-21T07:40:01.930Z,4.87
2018-01-21T07:42:33.341Z,4.30
2018-01-21T07:45:00.921Z,4.17
2018-01-21T07:47:28.524Z,4.97
2018-01-21T07:49:56.105Z,4.53
2018-01-21T07:52:24.505Z,4.20
2018-01-21T07:54:52.069Z,4.17
2018-01-21T07:57:19.660Z,6.57
2018-01-21T07:59:47.228Z,4.90
2018-01-21T08:02:15.649Z,4.70
2018-01-21T08:04:43.522Z,4.43
2018-01-21T08:07:11.086Z,4.60
2018-01-21T08:09:38.815Z,3.87
2018-01-21T08:12:07.156Z,3.90
2018-01-21T08:14:35.391Z,4.30
2018-01-21T08:17:02.971Z,3.80
2018-01-21T08:19:30.558Z,3.60
2018-01-21T08:21:58.136Z,3.70
2018-01-21T08:24:25.753Z,3.93
2018-01-21T08:26:53.324Z,3.53
2018-01-21T08:29:20.941Z,3.30
2018-01-21T08:31:49.307Z,3.70
2018-01-21T08:34:23.246Z,4.33
2018-01-21T08:36:56.389Z,6.00
2018-01-21T08:39:29.540Z,3.97
2018-01-21T08:42:00.507Z,3.80
2018-01-21T08:44:28.168Z,3.97
2018-01-21T08:46:55.768Z,3.63
2018-01-21T08:49:24.105Z,3.93
2018-01-21T08:51:51.705Z,3.60
2018-01-21T08:54:20.041Z,4.20
2018-01-21T08:56:48.396Z,3.80
2018-01-21T08:59:15.970Z,3.20
2018-01-21T09:01:43.561Z,3.50
2018-01-21T09:04:11.138Z,3.57
2018-01-21T09:06:39.501Z,4.00
2018-01-21T09:09:07.093Z,3.60
2018-01-21T09:11:34.691Z,3.77
2018-01-21T09:14:02.272Z,3.77
2018-01-21T09:16:29.902Z,4.07
2018-01-21T09:18:57.493Z,3.80
2018-01-21T09:21:25.061Z,4.33
2018-01-21T09:23:52.651Z,4.17
2018-01-21T09:26:20.254Z,3.60
2018-01-21T09:28:47.884Z,4.00
2018-01-21T09:31:15.481Z,7.83
2018-01-21T09:33:43.069Z,3.77
2018-01-21T09:36:10.653Z,3.60
2018-01-21T09:38:38.284Z,3.73
2018-01-21T09:41:05.882Z,3.40
2018-01-21T09:43:33.485Z,3.50
2018-01-21T09:46:01.100Z,4.47
2018-01-21T09:48:28.672Z,3.87
2018-01-21T09:50:56.272Z,3.00
2018-01-21T09:53:23.880Z,3.67
2018-01-21T09:55:51.473Z,3.03
2018-01-21T09:58:19.041Z,3.27
2018-01-21T10:00:46.682Z,3.37
2018-01-21T10:03:14.249Z,3.70
2018-01-21T10:05:41.869Z,3.93
2018-01-21T10:08:09.466Z,4.37
2018-01-21T10:10:37.072Z,4.57
2018-01-21T10:13:05.412Z,3.07
2018-01-21T10:15:33.776Z,2.90
2018-01-21T10:18:01.457Z,4.63
2018-01-21T10:20:29.100Z,3.13
2018-01-21T10:22:56.967Z,2.83
2018-01-21T10:25:24.557Z,3.50
2018-01-21T10:27:52.145Z,3.87
2018-01-21T10:30:20.505Z,4.87
2018-01-21T10:32:48.089Z,4.83
2018-01-21T10:35:16.444Z,4.50
2018-01-21T10:37:44.038Z,4.83
2018-01-21T10:40:11.638Z,4.40
2018-01-21T10:42:39.244Z,3.60
2018-01-21T10:45:07.589Z,3.83
2018-01-21T10:47:35.189Z,3.47
2018-01-21T10:50:03.539Z,3.27
2018-01-21T10:52:31.177Z,4.33
2018-01-21T10:54:58.784Z,3.70
2018-01-21T10:57:27.149Z,4.50
2018-01-21T10:59:55.513Z,3.60
2018-01-21T11:02:23.087Z,3.73
2018-01-21T11:04:51.456Z,2.90
2018-01-21T11:07:19.069Z,4.03
2018-01-21T11:09:46.665Z,4.73
2018-01-21T11:12:15.005Z,4.17
2018-01-21T11:14:42.600Z,3.60
2018-01-21T11:17:10.211Z,3.67
2018-01-21T11:19:37.792Z,4.10
2018-01-21T11:22:05.409Z,3.57
2018-01-21T11:24:33.775Z,3.60
2018-01-21T11:27:01.353Z,4.20
2018-01-21T11:29:29.732Z,4.40
2018-01-21T11:31:58.137Z,3.93
2018-01-21T11:34:25.745Z,4.50
2018-01-21T11:36:53.353Z,4.90
2018-01-21T11:39:21.017Z,4.60
2018-01-21T11:41:48.620Z,4.30
2018-01-21T11:44:16.198Z,4.37
2018-01-21T11:46:43.798Z,4.00
2018-01-21T11:49:11.417Z,4.40
2018-01-21T11:51:39.006Z,4.30
2018-01-21T11:54:06.610Z,5.13
2018-01-21T11:56:35.016Z,5.80
2018-01-21T11:59:02.641Z,3.83
2018-01-21T12:01:30.248Z,3.70
2018-01-21T12:03:58.639Z,5.10
2018-01-21T12:06:27.005Z,4.03
2018-01-21T12:08:55.372Z,4.67
2018-01-21T12:11:22.967Z,4.67
2018-01-21T12:13:50.641Z,3.73
2018-01-21T12:16:18.257Z,4.67
2018-01-21T12:18:45.857Z,3.40
2018-01-21T12:21:13.457Z,4.83
2018-01-21T12:23:41.073Z,4.43
2018-01-21T12:26:08.649Z,4.07
2018-01-21T12:28:36.572Z,8.53
2018-01-21T12:31:04.937Z,6.63
2018-01-21T12:33:32.874Z,3.73
2018-01-21T12:36:00.464Z,3.40
2018-01-21T12:38:28.072Z,4.20
2018-01-21T12:40:55.647Z,3.97
2018-01-21T12:43:23.242Z,4.10
2018-01-21T12:45:50.821Z,5.43
2018-01-21T12:48:19.196Z,4.70
2018-01-21T12:50:47.559Z,4.30
2018-01-21T12:53:15.169Z,5.20
2018-01-21T12:55:42.741Z,4.90
2018-01-21T12:58:10.334Z,6.00
2018-01-21T13:00:38.125Z,5.33
2018-01-21T13:03:06.478Z,4.57
2018-01-21T13:05:34.069Z,4.40
2018-01-21T13:08:02.437Z,3.57
2018-01-21T13:10:30.788Z,3.63
2018-01-21T13:12:58.544Z,4.07
2018-01-21T13:15:26.919Z,4.23
2018-01-21T13:17:54.493Z,4.90
2018-01-21T13:20:22.105Z,5.23
2018-01-21T13:22:50.004Z,5.13
2018-01-21T13:25:17.641Z,4.70
2018-01-21T13:27:45.226Z,5.33
2018-01-21T13:30:13.570Z,5.17
2018-01-21T13:32:41.176Z,4.77
2018-01-21T13:35:08.901Z,6.60
2018-01-21T13:37:36.494Z,5.23
2018-01-21T13:40:04.070Z,5.60
2018-01-21T13:42:31.682Z,5.97
2018-01-21T13:44:59.280Z,6.83
2018-01-21T13:47:26.877Z,5.83
2018-01-21T13:49:55.230Z,4.50
2018-01-21T13:52:22.814Z,5.40
2018-01-21T13:54:50.450Z,9.93
2018-01-21T13:57:18.046Z,6.03
2018-01-21T13:59:45.618Z,5.30
2018-01-21T14:02:13.188Z,5.87
2018-01-21T14:04:40.782Z,5.43
2018-01-21T14:07:08.412Z,5.00
2018-01-21T14:09:35.988Z,4.80
2018-01-21T14:12:03.578Z,5.33
2018-01-21T14:14:31.209Z,4.80
2018-01-21T14:16:58.817Z,5.50
2018-01-21T14:19:27.196Z,5.83
2018-01-21T14:21:55.546Z,5.20
2018-01-21T14:24:23.148Z,5.57
2018-01-21T14:26:51.580Z,6.40
2018-01-21T14:29:19.389Z,5.30
2018-01-21T14:31:46.974Z,5.27
2018-01-21T14:34:14.592Z,6.10
2018-01-21T14:36:43.021Z,6.00
2018-01-21T14:39:10.624Z,5.87
2018-01-21T14:41:38.973Z,6.83
2018-01-21T14:44:06.560Z,6.70
2018-01-21T14:46:34.184Z,6.97
2018-01-21T14:49:01.797Z,7.37
2018-01-21T14:51:30.168Z,7.43
2018-01-21T14:53:58.531Z,6.10
2018-01-21T14:56:26.148Z,7.27
2018-01-21T14:58:53.835Z,6.90
2018-01-21T15:01:21.438Z,6.43
2018-01-21T15:03:49.805Z,6.13
2018-01-21T15:06:17.424Z,7.17
2018-01-21T15:08:45.001Z,6.20
2018-01-21T15:11:12.624Z,6.20
2018-01-21T15:13:40.205Z,6.83
2018-01-21T15:16:07.809Z,6.00
2018-01-21T15:18:35.421Z,6.30
2018-01-21T15:21:03.000Z,6.47
2018-01-21T15:23:31.413Z,6.70
2018-01-21T15:25:59.777Z,7.70
2018-01-21T15:28:27.437Z,6.97
2018-01-21T15:30:55.034Z,8.70
2018-01-21T15:33:22.648Z,9.43
2018-01-21T15:35:50.228Z,13.37
2018-01-21T15:38:18.609Z,9.07
2018-01-21T15:40:46.948Z,8.07
2018-01-21T15:43:14.549Z,6.50
2018-01-21T15:45:42.901Z,6.37
2018-01-21T15:48:10.512Z,7.47
2018-01-21T15:50:38.341Z,6.83
2018-01-21T15:53:07.876Z,6.73
2018-01-21T15:55:35.513Z,7.00
2018-01-21T15:58:03.880Z,7.67
2018-01-21T16:00:31.458Z,8.30
2018-01-21T16:02:59.841Z,7.27
2018-01-21T16:05:28.213Z,7.30
2018-01-21T16:07:56.569Z,7.57
2018-01-21T16:10:24.184Z,8.63
2018-01-21T16:12:51.737Z,8.07
2018-01-21T16:15:19.345Z,9.10
2018-01-21T16:17:46.949Z,8.97
2018-01-21T16:20:14.584Z,9.63
2018-01-21T16:22:42.172Z,8.27
2018-01-21T16:25:09.780Z,9.80
2018-01-21T16:27:37.423Z,9.13
2018-01-21T16:30:05.617Z,10.37
2018-01-21T16:32:33.226Z,9.33
2018-01-21T16:35:00.843Z,10.13
2018-01-21T16:37:40.115Z,10.80
2018-01-21T16:40:08.488Z,10.13
2018-01-21T16:42:36.832Z,11.17
2018-01-21T16:45:04.417Z,12.37
2018-01-21T16:47:32.805Z,10.17
2018-01-21T16:50:01.155Z,10.57
2018-01-21T16:52:28.755Z,10.97
2018-01-21T16:54:56.386Z,14.47
2018-01-21T16:57:24.119Z,14.57
2018-01-21T16:59:51.805Z,15.00
2018-01-21T17:02:19.580Z,16.97
2018-01-21T17:04:47.152Z,16.23
2018-01-21T17:07:15.559Z,14.20
2018-01-21T17:09:43.154Z,13.33
2018-01-21T17:12:10.781Z,16.37
2018-01-21T17:14:41.671Z,16.90
2018-01-21T17:17:10.299Z,15.10
2018-01-21T17:19:38.010Z,15.47
2018-01-21T17:22:05.625Z,14.47
2018-01-21T17:24:33.276Z,16.47
2018-01-21T17:27:00.933Z,14.70
2018-01-21T17:29:28.538Z,12.87
2018-01-21T17:31:56.197Z,14.13
2018-01-21T17:34:23.804Z,14.60
2018-01-21T17:36:52.228Z,13.93
2018-01-21T17:39:19.818Z,13.93
2018-01-21T17:41:47.441Z,15.00
2018-01-21T17:44:15.058Z,17.53
2018-01-21T17:46:43.425Z,16.73
2018-01-21T17:49:11.030Z,17.47
2018-01-21T17:51:38.609Z,17.70
2018-01-21T17:54:06.240Z,18.37
2018-01-21T17:56:33.842Z,15.23
2018-01-21T17:59:02.233Z,13.13
2018-01-21T18:01:29.863Z,13.57
2018-01-21T18:03:57.440Z,13.90
2018-01-21T18:06:25.062Z,14.63
2018-01-21T18:08:52.672Z,15.97
2018-01-21T18:11:20.283Z,16.53
2018-01-21T18:13:47.871Z,16.40
2018-01-21T18:16:15.697Z,29.37
2018-01-21T18:18:43.316Z,30.90
2018-01-21T18:21:11.699Z,26.30
2018-01-21T18:23:39.295Z,24.33
2018-01-21T18:26:07.299Z,24.83
2018-01-21T18:28:34.904Z,21.73
2018-01-21T18:31:03.497Z,21.80
2018-01-21T18:33:31.862Z,21.13
2018-01-21T18:35:59.496Z,15.53
2018-01-21T18:38:27.089Z,14.53
2018-01-21T18:40:54.723Z,14.20
2018-01-21T18:43:22.326Z,13.87
2018-01-21T18:45:50.704Z,14.23
2018-01-21T18:48:19.079Z,17.10
2018-01-21T18:50:47.452Z,19.40
2018-01-21T18:53:15.879Z,20.83
2018-01-21T18:55:43.489Z,21.10
2018-01-21T18:58:11.881Z,18.60
2018-01-21T19:00:40.348Z,17.47
2018-01-21T19:03:07.937Z,17.47
2018-01-21T19:05:35.710Z,19.27
2018-01-21T19:08:03.294Z,20.00
2018-01-21T19:10:30.901Z,21.60
2018-01-21T19:12:59.290Z,21.33
2018-01-21T19:15:27.633Z,27.17
2018-01-21T19:17:55.253Z,22.20
2018-01-21T19:20:22.861Z,22.93
2018-01-21T19:22:50.472Z,20.37
2018-01-21T19:25:18.078Z,19.13
2018-01-21T19:27:46.832Z,19.90
2018-01-21T19:30:14.422Z,22.10
2018-01-21T19:32:42.070Z,15.70
2018-01-21T19:35:09.684Z,16.00
2018-01-21T19:37:37.309Z,16.50
2018-01-21T19:40:05.841Z,15.73
2018-01-21T19:42:38.954Z,17.57
2018-01-21T19:45:06.571Z,17.87
2018-01-21T19:47:35.217Z,16.40
2018-01-21T19:50:02.814Z,15.10
2018-01-21T19:52:30.441Z,15.40
2018-01-21T19:54:58.068Z,14.97
2018-01-21T19:57:25.700Z,15.30
2018-01-21T19:59:54.070Z,18.17
2018-01-21T20:02:22.521Z,20.73
2018-01-21T20:04:50.081Z,22.90
2018-01-21T20:07:17.676Z,18.43
2018-01-21T20:09:46.062Z,17.63
2018-01-21T20:12:13.778Z,17.23
2018-01-21T20:14:41.880Z,18.53
2018-01-21T20:17:09.507Z,16.83
2018-01-21T20:19:37.117Z,16.57
2018-01-21T20:22:05.481Z,16.23
2018-01-21T20:24:34.969Z,15.10
2018-01-21T20:27:03.191Z,14.27
2018-01-21T20:29:30.835Z,14.17
2018-01-21T20:31:58.581Z,15.40
2018-01-21T20:34:26.961Z,15.00
2018-01-21T20:36:55.325Z,18.20
2018-01-21T20:39:22.955Z,15.23
2018-01-21T20:41:50.570Z,14.73
2018-01-21T20:44:18.949Z,15.30
2018-01-21T20:46:47.334Z,15.60
2018-01-21T20:49:14.921Z,16.10
2018-01-21T20:51:48.152Z,17.17
2018-01-21T20:54:21.466Z,17.70
2018-01-21T20:56:49.892Z,24.23
2018-01-21T20:59:17.500Z,24.27
2018-01-21T21:01:45.106Z,23.80
2018-01-21T21:04:12.708Z,18.83
2018-01-21T21:06:40.309Z,19.33
2018-01-21T21:09:07.908Z,19.07
2018-01-21T21:11:36.312Z,18.83
2018-01-21T21:14:03.926Z,17.90
2018-01-21T21:16:31.537Z,17.97
2018-01-21T21:18:59.158Z,19.03
2018-01-21T21:21:26.785Z,20.73
2018-01-21T21:23:55.145Z,20.10
2018-01-21T21:26:23.503Z,21.27
2018-01-21T21:28:51.124Z,21.60
2018-01-21T21:31:19.550Z,21.63
2018-01-21T21:33:47.169Z,21.97
2018-01-21T21:36:14.872Z,20.63
2018-01-21T21:38:42.457Z,21.47
2018-01-21T21:41:10.832Z,20.13
2018-01-21T21:43:39.312Z,18.33
2018-01-21T21:46:08.613Z,16.53
2018-01-21T21:48:36.974Z,17.20
2018-01-21T21:51:04.576Z,17.03
2018-01-21T21:53:32.186Z,17.00
2018-01-21T21:55:59.797Z,17.67
2018-01-21T21:58:27.384Z,18.10
2018-01-21T22:00:55.000Z,18.97
2018-01-21T22:03:23.353Z,18.73
2018-01-21T22:05:51.110Z,21.40
2018-01-21T22:08:18.885Z,21.17
2018-01-21T22:10:46.466Z,18.23
2018-01-21T22:13:14.837Z,20.57
2018-01-21T22:15:43.189Z,23.87
2018-01-21T22:18:10.804Z,25.27
2018-01-21T22:20:38.405Z,29.10
2018-01-21T22:23:06.013Z,31.43
2018-01-21T22:25:33.601Z,22.53
2018-01-21T22:28:01.202Z,20.70
2018-01-21T22:30:28.819Z,19.63
2018-01-21T22:32:56.413Z,21.07
2018-01-21T22:35:24.037Z,22.30
2018-01-21T22:37:51.621Z,21.60
2018-01-21T22:40:19.223Z,23.10
2018-01-21T22:42:47.580Z,21.10
2018-01-21T22:45:15.200Z,21.50
2018-01-21T22:47:42.790Z,20.97
2018-01-21T22:50:10.610Z,20.97
2018-01-21T22:52:38.213Z,23.70
2018-01-21T22:55:05.822Z,19.00
2018-01-21T22:57:33.433Z,20.03
2018-01-21T23:00:01.155Z,20.90
2018-01-21T23:02:28.777Z,20.77
2018-01-21T23:04:56.401Z,18.07
2018-01-21T23:07:23.992Z,18.30
2018-01-21T23:09:51.616Z,19.23
2018-01-21T23:12:19.218Z,19.10
2018-01-21T23:14:46.830Z,21.07
2018-01-21T23:17:14.476Z,19.83
2018-01-21T23:19:42.066Z,18.63
2018-01-21T23:22:09.675Z,19.80
2018-01-21T23:24:38.037Z,20.27
2018-01-21T23:27:06.470Z,19.30
2018-01-21T23:29:34.072Z,19.10
2018-01-21T23:32:01.669Z,18.13
2018-01-21T23:34:29.284Z,17.20
2018-01-21T23:36:56.878Z,19.23
2018-01-21T23:39:24.487Z,18.70
2018-01-21T23:41:52.073Z,18.27
2018-01-21T23:44:19.674Z,17.73
2018-01-21T23:46:47.266Z,19.17
2018-01-21T23:49:14.882Z,19.00
2018-01-21T23:51:42.474Z,18.23
2018-01-21T23:54:10.088Z,17.43
2018-01-21T23:56:38.472Z,19.03
2018-01-21T23:59:06.905Z,17.90
